Time;durP1;ratioP1;P1;durP2;ratioP2;P2;SDS_P1;SDS_P2;PMS_P1;PMS_P2;Temp;Humidity;BMP_temperature;BMP_pressure;BME280_temperature;BME280_humidity;BME280_pressure;Samples;Min_cycle;Max_cycle;Signal;HPM_P1;HPM_P2
2023/04/17 00:01:41;;;;;;;;;;;;;;;17.05;44.59;101142.69;4947963;28;97899;-70
2023/04/17 00:04:11;;;;;;;;;;;;;;;17.04;44.53;101138.34;4948601;28;110271;-70
2023/04/17 00:06:37;;;;;;;;;;;;;;;17.03;44.67;101144.91;4934576;28;98398;-67
2023/04/17 00:09:03;;;;;;;;;;;;;;;17.00;44.58;101134.59;4917120;28;126483;-70
2023/04/17 00:11:29;;;;;;;;;;;;;;;17.01;44.54;101133.50;4947924;28;127612;-67
2023/04/17 00:13:55;;;;;;;;;;;;;;;16.99;44.85;101138.44;4948354;28;121192;-67
2023/04/17 00:16:21;;;;;;;;;;;;;;;16.97;44.56;101133.28;4923987;28;127762;-66
2023/04/17 00:18:47;;;;;;;;;;;;;;;16.97;44.62;101135.19;4948811;28;128088;-69
2023/04/17 00:21:13;;;;;;;;;;;;;;;16.95;44.56;101135.50;4947258;28;112337;-67
2023/04/17 00:23:39;;;;;;;;;;;;;;;16.95;44.55;101132.78;4927811;28;121814;-70
2023/04/17 00:26:05;;;;;;;;;;;;;;;16.92;44.53;101136.88;4931530;28;98491;-69
2023/04/17 00:28:32;;;;;;;;;;;;;;;16.91;44.37;101129.00;4933322;28;121837;-69
2023/04/17 00:30:57;;;;;;;;;;;;;;;16.89;44.51;101129.28;4947897;28;127692;-66
2023/04/17 00:33:23;;;;;;;;;;;;;;;16.89;44.55;101136.66;4946391;28;120286;-67
2023/04/17 00:35:50;;;;;;;;;;;;;;;16.86;44.54;101121.72;4937889;28;98335;-69
2023/04/17 00:38:16;;;;;;;;;;;;;;;16.86;44.54;101135.34;4930909;28;117494;-70
2023/04/17 00:40:44;;;;;;;;;;;;;;;16.85;44.44;101130.16;4934295;28;124095;-67
2023/04/17 00:43:09;;;;;;;;;;;;;;;16.84;44.55;101128.56;4917097;28;98057;-70
2023/04/17 00:45:35;;;;;;;;;;;;;;;16.84;44.50;101136.72;4932215;28;125941;-70
2023/04/17 00:48:02;;;;;;;;;;;;;;;16.82;44.59;101134.31;4929948;28;98297;-70
2023/04/17 00:50:28;;;;;;;;;;;;;;;16.82;44.57;101130.75;4932801;28;97858;-67
2023/04/17 00:52:54;;;;;;;;;;;;;;;16.80;44.58;101128.34;4948215;28;107848;-69
2023/04/17 00:55:20;;;;;;;;;;;;;;;16.80;44.66;101136.50;4948189;28;125527;-67
2023/04/17 00:57:48;;;;;;;;;;;;;;;16.79;44.54;101131.34;4948111;28;124292;-70
2023/04/17 01:00:15;;;;;;;;;;;;;;;16.79;44.59;101139.53;4948605;28;99004;-66
2023/04/17 01:02:41;;;;;;;;;;;;;;;16.78;44.44;101135.16;4933443;28;98243;-67
2023/04/17 01:05:07;;;;;;;;;;;;;;;16.77;44.52;101128.91;4939428;28;107251;-69
2023/04/17 01:07:33;;;;;;;;;;;;;;;16.75;44.49;101133.84;4937237;28;98562;-67
2023/04/17 01:09:59;;;;;;;;;;;;;;;16.75;44.54;101135.78;4966904;27;126519;-66
2023/04/17 01:12:25;;;;;;;;;;;;;;;16.73;44.50;101136.03;4952964;28;98300;-69
2023/04/17 01:14:55;;;;;;;;;;;;;;;16.73;44.56;101129.75;4949361;28;102024;-67
2023/04/17 01:17:21;;;;;;;;;;;;;;;16.73;44.54;101136.03;4948509;28;127940;-67
2023/04/17 01:19:47;;;;;;;;;;;;;;;16.73;44.37;101132.50;4947972;28;98162;-66
2023/04/17 01:22:15;;;;;;;;;;;;;;;16.71;44.51;101130.06;4948890;28;109361;-67
2023/04/17 01:24:41;;;;;;;;;;;;;;;16.71;44.60;101131.97;4948432;28;98619;-69
2023/04/17 01:27:07;;;;;;;;;;;;;;;16.70;44.66;101136.59;4949203;28;124581;-69
2023/04/17 01:29:33;;;;;;;;;;;;;;;16.69;44.66;101134.97;4949303;28;127600;-69
2023/04/17 01:31:59;;;;;;;;;;;;;;;16.67;44.60;101129.84;4949530;28;98193;-69
2023/04/17 01:34:25;;;;;;;;;;;;;;;16.67;44.53;101127.13;4951222;28;98496;-69
2023/04/17 01:36:51;;;;;;;;;;;;;;;16.66;44.47;101136.41;4935398;28;125404;-69
2023/04/17 01:39:17;;;;;;;;;;;;;;;16.66;44.53;101130.13;4947547;28;126902;-69
2023/04/17 01:41:43;;;;;;;;;;;;;;;16.64;44.56;101124.97;4933578;28;123089;-67
2023/04/17 01:44:09;;;;;;;;;;;;;;;16.63;44.68;101133.44;4948859;28;127717;-67
2023/04/17 01:46:35;;;;;;;;;;;;;;;16.63;44.50;101141.59;4948654;28;98949;-69
2023/04/17 01:49:01;;;;;;;;;;;;;;;16.63;44.67;101138.88;4936559;28;127110;-70
2023/04/17 01:51:27;;;;;;;;;;;;;;;16.63;44.47;101133.44;4919461;28;123127;-70
2023/04/17 01:53:53;;;;;;;;;;;;;;;16.61;44.48;101133.72;4949867;28;98350;-67
2023/04/17 01:56:19;;;;;;;;;;;;;;;16.61;44.47;101139.16;4949147;28;127980;-70
2023/04/17 01:58:45;;;;;;;;;;;;;;;16.60;44.55;101128.56;4933425;28;125769;-70
2023/04/17 02:01:11;;;;;;;;;;;;;;;16.59;44.59;101127.78;4948480;28;121184;-67
2023/04/17 02:03:37;;;;;;;;;;;;;;;16.58;44.70;101131.56;4947754;28;128836;-69
2023/04/17 02:06:03;;;;;;;;;;;;;;;16.57;44.72;101129.97;4948675;28;127993;-67
2023/04/17 02:08:28;;;;;;;;;;;;;;;16.57;44.56;101129.97;4948885;28;127791;-67
2023/04/17 02:10:54;;;;;;;;;;;;;;;16.57;44.63;101129.16;4951471;28;123189;-67
2023/04/17 02:13:20;;;;;;;;;;;;;;;16.56;44.59;101135.69;4950230;28;107015;-66
2023/04/17 02:15:46;;;;;;;;;;;;;;;16.55;44.58;101129.44;4931348;28;127725;-67
2023/04/17 02:18:12;;;;;;;;;;;;;;;16.55;44.57;101132.19;4950710;28;126736;-70
2023/04/17 02:20:38;;;;;;;;;;;;;;;16.54;44.51;101140.63;4952804;28;99082;-67
2023/04/17 02:23:07;;;;;;;;;;;;;;;16.54;44.50;101141.41;4950166;28;101556;-67
2023/04/17 02:25:33;;;;;;;;;;;;;;;16.53;44.66;101139.81;4950321;28;120590;-67
2023/04/17 02:27:59;;;;;;;;;;;;;;;16.52;44.72;101145.56;4951275;28;125293;-67
2023/04/17 02:30:25;;;;;;;;;;;;;;;16.53;44.56;101142.53;4952336;28;98181;-67
2023/04/17 02:32:51;;;;;;;;;;;;;;;16.52;44.66;101149.06;4950272;28;128195;-67
2023/04/17 02:35:19;;;;;;;;;;;;;;;16.51;44.56;101146.66;4951079;28;98327;-67
2023/04/17 02:37:45;;;;;;;;;;;;;;;16.51;44.50;101143.94;4951164;28;98170;-67
2023/04/17 02:40:11;;;;;;;;;;;;;;;16.50;44.78;101143.09;4952565;28;118584;-70
2023/04/17 02:42:36;;;;;;;;;;;;;;;16.49;44.51;101140.69;4950788;28;127038;-67
2023/04/17 02:45:03;;;;;;;;;;;;;;;16.48;44.48;101145.31;4951615;28;128706;-67
2023/04/17 02:47:29;;;;;;;;;;;;;;;16.47;44.55;101140.97;4935068;28;124267;-67
2023/04/17 02:49:55;;;;;;;;;;;;;;;16.45;44.58;101137.72;4952995;28;99255;-67
2023/04/17 02:52:22;;;;;;;;;;;;;;;16.45;44.63;101145.91;4951148;28;99073;-67
2023/04/17 02:54:48;;;;;;;;;;;;;;;16.44;44.55;101147.81;4951248;28;98838;-70
2023/04/17 02:57:14;;;;;;;;;;;;;;;16.42;44.71;101144.56;4950709;28;126206;-67
2023/04/17 02:59:40;;;;;;;;;;;;;;;16.42;44.65;101147.28;4949328;28;98075;-70
2023/04/17 03:02:05;;;;;;;;;;;;;;;16.41;44.71;101147.56;4949000;28;128154;-70
2023/04/17 03:04:33;;;;;;;;;;;;;;;16.40;44.79;101154.13;4947625;28;125982;-67
2023/04/17 03:06:59;;;;;;;;;;;;;;;16.39;44.58;101147.88;4949820;28;98309;-70
2023/04/17 03:09:26;;;;;;;;;;;;;;;16.39;44.62;101145.16;4946681;28;118638;-68
2023/04/17 03:11:52;;;;;;;;;;;;;;;16.39;44.68;101149.78;4950012;28;98596;-67
2023/04/17 03:14:17;;;;;;;;;;;;;;;16.38;44.49;101156.31;4951275;28;128169;-68
2023/04/17 03:16:43;;;;;;;;;;;;;;;16.37;44.77;101152.78;4950428;28;127129;-70
2023/04/17 03:19:09;;;;;;;;;;;;;;;16.35;44.66;101152.28;4948317;28;122138;-68
2023/04/17 03:21:37;;;;;;;;;;;;;;;16.36;44.58;101156.59;4950955;28;128060;-68
2023/04/17 03:24:03;;;;;;;;;;;;;;;16.34;44.68;101155.28;4953169;28;99004;-68
2023/04/17 03:26:29;;;;;;;;;;;;;;;16.33;44.65;101159.91;4950221;28;98017;-68
2023/04/17 03:28:54;;;;;;;;;;;;;;;16.33;44.55;101159.09;4948052;28;105515;-69
2023/04/17 03:31:22;;;;;;;;;;;;;;;16.32;44.66;101157.47;4950270;28;125127;-70
2023/04/17 03:33:48;;;;;;;;;;;;;;;16.31;44.54;101164.84;4948858;28;98545;-68
2023/04/17 03:36:15;;;;;;;;;;;;;;;16.31;44.73;101161.28;4950315;28;124113;-70
2023/04/17 03:38:41;;;;;;;;;;;;;;;16.29;44.71;101166.22;4951856;28;100124;-68
2023/04/17 03:41:07;;;;;;;;;;;;;;;16.30;44.64;101170.53;4947723;28;125897;-70
2023/04/17 03:43:33;;;;;;;;;;;;;;;16.29;44.62;101168.94;4930563;28;121583;-68
2023/04/17 03:45:59;;;;;;;;;;;;;;;16.28;44.72;101170.84;4948677;28;128417;-68
2023/04/17 03:48:25;;;;;;;;;;;;;;;16.28;44.69;101172.75;4949566;28;122058;-70
2023/04/17 03:50:51;;;;;;;;;;;;;;;16.28;44.63;101186.34;4952520;28;99267;-70
2023/04/17 03:53:17;;;;;;;;;;;;;;;16.26;44.59;101181.19;4922355;28;100030;-68
2023/04/17 03:55:43;;;;;;;;;;;;;;;16.25;44.64;101185.00;4947975;28;125496;-70
2023/04/17 03:58:09;;;;;;;;;;;;;;;16.25;44.77;101179.56;4948663;28;121719;-70
2023/04/17 04:00:36;;;;;;;;;;;;;;;16.24;44.64;101177.97;4950154;28;98177;-67
2023/04/17 04:03:02;;;;;;;;;;;;;;;16.25;44.80;101187.75;4950293;28;98370;-70
2023/04/17 04:05:28;;;;;;;;;;;;;;;16.24;44.62;101190.75;4948889;28;125764;-70
2023/04/17 04:07:54;;;;;;;;;;;;;;;16.23;44.59;101194.56;4919451;28;120256;-68
2023/04/17 04:10:20;;;;;;;;;;;;;;;16.22;44.67;101193.75;4946748;28;101873;-68
2023/04/17 04:12:46;;;;;;;;;;;;;;;16.22;44.67;101196.47;4947373;28;128089;-70
2023/04/17 04:15:12;;;;;;;;;;;;;;;16.22;44.73;101201.09;4936551;28;110822;-67
2023/04/17 04:17:38;;;;;;;;;;;;;;;16.21;44.69;101197.56;4948499;28;121811;-70
2023/04/17 04:20:07;;;;;;;;;;;;;;;16.19;44.59;101206.03;4944443;28;129466;-70
2023/04/17 04:22:33;;;;;;;;;;;;;;;16.19;44.59;101203.31;4947533;28;99855;-70
2023/04/17 04:24:59;;;;;;;;;;;;;;;16.19;44.56;101208.75;4946951;28;98429;-68
2023/04/17 04:27:26;;;;;;;;;;;;;;;16.19;44.69;101206.03;4944932;28;122461;-70
2023/04/17 04:29:57;;;;;;;;;;;;;;;16.18;44.61;101209.81;4947390;28;99272;-68
2023/04/17 04:32:24;;;;;;;;;;;;;;;16.19;44.78;101213.34;4946747;28;98123;-70
2023/04/17 04:34:50;;;;;;;;;;;;;;;16.18;44.68;101214.47;4931656;28;98041;-68
2023/04/17 04:37:20;;;;;;;;;;;;;;;16.17;44.63;101216.38;4949229;28;98124;-68
2023/04/17 04:39:52;;;;;;;;;;;;;;;16.17;44.71;101219.09;4950032;28;98273;-70
2023/04/17 04:42:21;;;;;;;;;;;;;;;16.18;44.44;101220.69;4933478;28;97905;-70
2023/04/17 04:44:47;;;;;;;;;;;;;;;16.20;44.70;101228.59;4947319;28;98759;-70
2023/04/17 04:47:12;;;;;;;;;;;;;;;16.21;44.72;101224.78;4945964;28;102361;-70
2023/04/17 04:49:38;;;;;;;;;;;;;;;16.23;44.43;101230.75;4947633;28;127202;-68
2023/04/17 04:52:05;;;;;;;;;;;;;;;16.25;44.56;101227.72;4946502;28;126532;-70
2023/04/17 04:54:31;;;;;;;;;;;;;;;16.28;44.53;101229.88;4949073;28;98509;-70
2023/04/17 04:56:57;;;;;;;;;;;;;;;16.29;44.49;101224.13;4953020;28;97906;-70
2023/04/17 04:59:23;;;;;;;;;;;;;;;16.32;44.43;101220.06;4948382;28;127633;-70
2023/04/17 05:01:49;;;;;;;;;;;;;;;16.32;44.36;101229.00;4948223;28;129155;-70
2023/04/17 05:04:15;;;;;;;;;;;;;;;16.32;44.62;101229.00;4948603;28;98597;-68
2023/04/17 05:06:41;;;;;;;;;;;;;;;16.32;44.33;101228.22;4948289;28;122514;-70
2023/04/17 05:09:06;;;;;;;;;;;;;;;16.33;44.42;101238.00;4948324;28;128220;-68
2023/04/17 05:11:33;;;;;;;;;;;;;;;16.34;44.53;101234.97;4947054;28;128032;-70
2023/04/17 05:13:59;;;;;;;;;;;;;;;16.35;44.62;101241.25;4948984;28;97899;-70
2023/04/17 05:16:25;;;;;;;;;;;;;;;16.34;44.57;101243.13;4950481;28;121827;-68
2023/04/17 05:18:50;;;;;;;;;;;;;;;16.36;44.43;101245.56;4950840;28;128122;-68
2023/04/17 05:21:16;;;;;;;;;;;;;;;16.35;44.44;101244.78;4933933;28;126039;-68
2023/04/17 05:23:42;;;;;;;;;;;;;;;16.35;44.36;101249.41;4950148;28;127664;-70
2023/04/17 05:26:08;;;;;;;;;;;;;;;16.35;44.36;101252.94;4951872;28;121836;-68
2023/04/17 05:28:34;;;;;;;;;;;;;;;16.34;44.37;101254.00;4951348;28;99063;-68
2023/04/17 05:31:00;;;;;;;;;;;;;;;16.35;44.51;101254.84;4952803;28;108302;-70
2023/04/17 05:33:26;;;;;;;;;;;;;;;16.37;44.55;101255.34;4949389;28;98598;-70
2023/04/17 05:35:52;;;;;;;;;;;;;;;16.39;44.39;101264.06;4953692;28;121445;-70
2023/04/17 05:38:18;;;;;;;;;;;;;;;16.41;44.42;101261.84;4950255;28;127862;-68
2023/04/17 05:40:44;;;;;;;;;;;;;;;16.44;44.40;101269.44;4952506;28;127999;-68
2023/04/17 05:43:10;;;;;;;;;;;;;;;16.50;44.32;101272.91;4951309;28;98168;-68
2023/04/17 05:45:36;;;;;;;;;;;;;;;16.56;44.14;101269.06;4951691;28;121402;-70
2023/04/17 05:48:02;;;;;;;;;;;;;;;16.64;44.15;101266.50;4953134;28;104522;-68
2023/04/17 05:50:28;;;;;;;;;;;;;;;16.73;44.13;101268.59;4933488;28;111956;-68
2023/04/17 05:52:54;;;;;;;;;;;;;;;16.85;43.96;101278.00;4951311;28;98160;-69
2023/04/17 05:55:20;;;;;;;;;;;;;;;16.93;44.00;101280.09;4950519;28;121862;-68
2023/04/17 05:57:46;;;;;;;;;;;;;;;17.05;43.91;101281.59;4952687;28;128077;-69
2023/04/17 06:00:13;;;;;;;;;;;;;;;17.14;43.75;101285.31;4946979;28;127435;-69
2023/04/17 06:02:41;;;;;;;;;;;;;;;17.23;43.89;101283.53;4949727;28;123535;-69
2023/04/17 06:05:07;;;;;;;;;;;;;;;17.34;43.56;101279.59;4949701;28;97853;-71
2023/04/17 06:07:34;;;;;;;;;;;;;;;17.47;43.55;101272.59;4936145;28;98630;-70
2023/04/17 06:10:00;;;;;;;;;;;;;;;17.57;43.55;101271.66;4949849;28;99027;-69
2023/04/17 06:12:26;;;;;;;;;;;;;;;17.63;43.43;101274.00;4948351;28;98096;-69
2023/04/17 06:14:52;;;;;;;;;;;;;;;17.67;43.76;101280.47;4948806;28;122746;-70
2023/04/17 06:17:18;;;;;;;;;;;;;;;17.71;43.58;101282.63;4952121;28;126412;-69
2023/04/17 06:19:44;;;;;;;;;;;;;;;17.69;43.62;101282.91;4949027;28;128019;-70
2023/04/17 06:22:10;;;;;;;;;;;;;;;17.66;43.71;101284.31;4952182;28;122227;-69
2023/04/17 06:24:36;;;;;;;;;;;;;;;17.66;43.69;101283.50;4949387;28;123450;-70
2023/04/17 06:27:02;;;;;;;;;;;;;;;17.56;43.92;101292.63;4946248;28;99492;-69
2023/04/17 06:29:28;;;;;;;;;;;;;;;17.49;44.14;101286.75;4948713;28;98550;-71
2023/04/17 06:31:55;;;;;;;;;;;;;;;17.53;43.94;101289.69;4949069;28;112979;-69
2023/04/17 06:34:21;;;;;;;;;;;;;;;17.63;43.94;101284.09;4950275;28;97971;-70
2023/04/17 06:36:47;;;;;;;;;;;;;;;17.65;43.92;101296.34;4951147;28;98951;-71
2023/04/17 06:39:13;;;;;;;;;;;;;;;17.67;43.96;101299.56;4948948;28;127810;-70
2023/04/17 06:41:38;;;;;;;;;;;;;;;17.66;43.79;101292.50;4952822;28;129089;-70
2023/04/17 06:44:04;;;;;;;;;;;;;;;17.61;43.88;101299.94;4937043;28;107724;-69
2023/04/17 06:46:30;;;;;;;;;;;;;;;17.61;43.92;101306.19;4953028;28;100725;-70
2023/04/17 06:48:58;;;;;;;;;;;;;;;17.54;44.03;101303.03;4951076;28;98389;-70
2023/04/17 06:51:26;;;;;;;;;;;;;;;17.50;44.01;101309.38;4919262;28;98176;-69
2023/04/17 06:53:52;;;;;;;;;;;;;;;17.42;44.21;101306.19;4950223;28;97931;-70
2023/04/17 06:56:18;;;;;;;;;;;;;;;17.38;44.28;101318.78;4949627;28;98364;-71
2023/04/17 06:58:44;;;;;;;;;;;;;;;17.31;44.15;101321.03;4947779;28;118003;-70
2023/04/17 07:01:11;;;;;;;;;;;;;;;17.32;44.14;101324.56;4950847;28;98681;-70
2023/04/17 07:03:40;;;;;;;;;;;;;;;17.71;43.76;101318.88;4948221;28;98010;-71
2023/04/17 07:06:06;;;;;;;;;;;;;;;17.98;43.50;101320.94;4947316;28;126702;-69
2023/04/17 07:08:32;;;;;;;;;;;;;;;18.52;42.93;101321.44;4932260;28;114735;-69
2023/04/17 07:10:58;;;;;;;;;;;;;;;18.98;42.37;101320.59;4931972;28;111615;-71
2023/04/17 07:13:25;;;;;;;;;;;;;;;19.01;42.71;101331.72;4949523;28;100568;-69
2023/04/17 07:15:54;;;;;;;;;;;;;;;19.09;42.68;101335.69;4949455;28;98107;-70
2023/04/17 07:18:20;;;;;;;;;;;;;;;19.17;42.89;101342.38;4948240;28;98441;-69
2023/04/17 07:20:47;;;;;;;;;;;;;;;19.16;42.75;101341.56;4952398;28;99008;-69
2023/04/17 07:23:13;;;;;;;;;;;;;;;19.08;43.22;101347.72;4952034;28;98208;-69
2023/04/17 07:25:39;;;;;;;;;;;;;;;19.33;42.63;101352.66;4948654;28;119257;-70
2023/04/17 07:28:05;;;;;;;;;;;;;;;19.80;42.24;101358.00;4949633;28;98553;-69
2023/04/17 07:30:31;;;;;;;;;;;;;;;20.01;42.27;101359.16;4948045;28;127800;-69
2023/04/17 07:32:57;;;;;;;;;;;;;;;20.21;42.17;101365.28;4946632;28;98204;-70
2023/04/17 07:35:23;;;;;;;;;;;;;;;20.50;41.98;101362.13;4930390;28;129937;-71
2023/04/17 07:37:49;;;;;;;;;;;;;;;20.74;41.87;101367.25;4963087;28;127329;-71
2023/04/17 07:40:15;;;;;;;;;;;;;;;20.99;41.76;101377.53;4953077;28;98518;-70
2023/04/17 07:42:41;;;;;;;;;;;;;;;21.27;41.78;101375.38;4948591;28;98345;-71
2023/04/17 07:45:08;;;;;;;;;;;;;;;21.46;41.59;101372.41;4961356;28;128060;-69
2023/04/17 07:47:34;;;;;;;;;;;;;;;21.18;42.06;101381.94;4948812;28;98514;-71
2023/04/17 07:50:00;;;;;;;;;;;;;;;20.81;42.66;101382.13;4945121;28;122555;-71
2023/04/17 07:52:26;;;;;;;;;;;;;;;20.57;42.94;101390.69;4948765;28;110893;-70
2023/04/17 07:54:53;;;;;;;;;;;;;;;20.44;43.04;101385.25;4945102;28;126270;-70
2023/04/17 07:57:20;;;;;;;;;;;;;;;20.74;42.57;101386.41;4946088;28;99015;-69
2023/04/17 07:59:46;;;;;;;;;;;;;;;21.09;42.23;101393.69;4948622;28;97956;-70
2023/04/17 08:02:12;;;;;;;;;;;;;;;21.01;42.41;101388.19;4949072;28;97909;-70
2023/04/17 08:04:38;;;;;;;;;;;;;;;20.99;42.75;101396.72;4948414;28;99084;-70
2023/04/17 08:07:09;;;;;;;;;;;;;;;21.14;42.37;101392.75;4950721;28;99193;-70
2023/04/17 08:09:36;;;;;;;;;;;;;;;21.46;42.07;101390.81;4957926;28;98272;-71
2023/04/17 08:12:02;;;;;;;;;;;;;;;21.73;41.92;101393.28;4930948;28;98032;-71
2023/04/17 08:14:28;;;;;;;;;;;;;;;21.89;41.98;101398.28;4930749;28;98178;-70
2023/04/17 08:16:54;;;;;;;;;;;;;;;22.10;41.74;101393.78;4930784;28;98912;-70
2023/04/17 08:19:20;;;;;;;;;;;;;;;22.58;41.39;101394.75;4926974;28;100068;-70
2023/04/17 08:21:49;;;;;;;;;;;;;;;22.88;41.29;101404.72;4935139;28;121641;-70
2023/04/17 08:24:16;;;;;;;;;;;;;;;22.91;41.50;101400.50;4930532;28;99403;-70
2023/04/17 08:26:42;;;;;;;;;;;;;;;23.05;41.49;101412.09;4930990;28;97992;-70
2023/04/17 08:29:08;;;;;;;;;;;;;;;23.23;41.48;101410.91;4948878;28;109708;-71
2023/04/17 08:31:38;;;;;;;;;;;;;;;23.56;41.05;101409.44;4932221;28;122846;-71
2023/04/17 08:34:04;;;;;;;;;;;;;;;23.61;40.84;101412.81;4936614;28;98391;-71
2023/04/17 08:36:30;;;;;;;;;;;;;;;23.50;41.35;101417.91;4927970;28;99771;-71
2023/04/17 08:38:56;;;;;;;;;;;;;;;23.62;41.39;101419.94;4916785;28;127774;-71
2023/04/17 08:41:24;;;;;;;;;;;;;;;23.65;41.45;101426.72;4918358;28;122695;-71
2023/04/17 08:43:50;;;;;;;;;;;;;;;24.00;41.01;101411.59;4933744;28;99095;-71
2023/04/17 08:46:17;;;;;;;;;;;;;;;24.39;40.56;101419.75;4918598;28;99334;-71
2023/04/17 08:48:45;;;;;;;;;;;;;;;24.71;40.37;101427.19;4928726;28;98164;-71
2023/04/17 08:51:10;;;;;;;;;;;;;;;25.31;40.01;101422.19;4932366;28;98913;-71
2023/04/17 08:53:36;;;;;;;;;;;;;;;25.92;39.65;101427.66;4930350;28;128419;-71
2023/04/17 08:56:05;;;;;;;;;;;;;;;26.42;39.53;101426.34;4932442;28;124047;-72
2023/04/17 08:58:35;;;;;;;;;;;;;;;26.20;39.92;101427.69;4910482;28;123818;-71
2023/04/17 09:01:09;;;;;;;;;;;;;;;26.35;40.04;101422.56;4946844;28;97977;-72
2023/04/17 09:03:42;;;;;;;;;;;;;;;26.65;39.85;101434.13;4933367;28;98421;-71
2023/04/17 09:06:09;;;;;;;;;;;;;;;26.06;40.87;101435.56;4931521;28;98430;-69
2023/04/17 09:08:36;;;;;;;;;;;;;;;25.35;41.53;101425.84;4914937;28;98378;-71
2023/04/17 09:11:01;;;;;;;;;;;;;;;24.79;42.26;101433.75;4932463;28;98148;-71
2023/04/17 09:13:29;;;;;;;;;;;;;;;24.31;42.61;101432.41;4931025;28;128549;-71
2023/04/17 09:16:12;;;;;;;;;;;;;;;23.87;42.85;101431.94;4917885;28;99376;-71
2023/04/17 09:18:38;;;;;;;;;;;;;;;23.46;42.96;101438.13;4933613;28;98181;-71
2023/04/17 09:21:05;;;;;;;;;;;;;;;23.14;43.52;101432.13;4936179;28;98078;-71
2023/04/17 09:23:50;;;;;;;;;;;;;;;23.11;43.08;101440.22;4930173;28;99087;-71
2023/04/17 09:26:20;;;;;;;;;;;;;;;23.50;42.58;101433.56;4931590;28;99163;-71
2023/04/17 09:29:12;;;;;;;;;;;;;;;23.74;42.01;101436.56;4934468;28;98413;-71
2023/04/17 09:31:41;;;;;;;;;;;;;;;23.69;42.34;101430.44;4934857;28;99620;-71
2023/04/17 09:34:09;;;;;;;;;;;;;;;23.94;41.67;101428.66;4920289;28;98915;-71
2023/04/17 09:36:37;;;;;;;;;;;;;;;25.86;39.86;101429.06;4936516;28;98387;-71
2023/04/17 09:39:04;;;;;;;;;;;;;;;25.57;40.52;101434.81;4932236;28;98694;-71
2023/04/17 09:41:31;;;;;;;;;;;;;;;25.33;41.20;101436.41;4932143;28;118542;-71
2023/04/17 09:44:04;;;;;;;;;;;;;;;25.32;41.26;101434.00;4916991;28;99597;-71
2023/04/17 09:46:36;;;;;;;;;;;;;;;25.03;41.50;101438.53;4929603;28;98470;-71
2023/04/17 09:49:07;;;;;;;;;;;;;;;24.58;42.22;101444.03;4934495;28;98432;-71
2023/04/17 09:51:33;;;;;;;;;;;;;;;24.12;42.78;101437.59;4933365;28;118261;-71
2023/04/17 09:53:59;;;;;;;;;;;;;;;23.75;42.74;101440.94;4934652;28;127802;-71
2023/04/17 09:56:26;;;;;;;;;;;;;;;23.52;43.09;101440.38;4922251;28;98306;-71
2023/04/17 09:58:52;;;;;;;;;;;;;;;23.42;43.03;101439.94;4918436;28;99366;-71
2023/04/17 10:01:18;;;;;;;;;;;;;;;23.52;42.50;101440.38;4905040;28;122827;-71
2023/04/17 10:03:44;;;;;;;;;;;;;;;23.53;42.57;101439.22;4917283;28;99083;-71
2023/04/17 10:06:11;;;;;;;;;;;;;;;23.48;42.75;101441.38;4931261;28;127739;-71
2023/04/17 10:08:36;;;;;;;;;;;;;;;23.39;42.44;101438.66;4914297;28;122497;-71
2023/04/17 10:11:04;;;;;;;;;;;;;;;23.24;42.62;101442.75;4933720;28;100140;-71
2023/04/17 10:13:30;;;;;;;;;;;;;;;23.02;43.17;101446.56;4928675;28;98509;-71
2023/04/17 10:15:56;;;;;;;;;;;;;;;22.84;43.08;101444.16;4913501;28;128705;-71
2023/04/17 10:18:22;;;;;;;;;;;;;;;22.71;43.30;101445.94;4930320;28;98382;-71
2023/04/17 10:20:49;;;;;;;;;;;;;;;22.61;43.12;101446.31;4948300;28;98071;-71
2023/04/17 10:23:25;;;;;;;;;;;;;;;22.55;43.22;101451.13;4935080;28;100866;-70
2023/04/17 10:26:14;;;;;;;;;;;;;;;22.57;42.98;101450.84;4929740;28;100314;-71
2023/04/17 10:28:47;;;;;;;;;;;;;;;22.61;42.92;101447.09;4957907;28;98150;-70
2023/04/17 10:31:13;;;;;;;;;;;;;;;22.49;43.04;101442.28;4946684;28;98248;-70
2023/04/17 10:33:48;;;;;;;;;;;;;;;22.40;43.05;101448.88;4947179;28;127807;-71
2023/04/17 10:36:36;;;;;;;;;;;;;;;22.50;42.85;101437.56;4947432;28;98749;-70
2023/04/17 10:39:16;;;;;;;;;;;;;;;22.79;42.55;101437.72;4944414;28;98229;-71
2023/04/17 10:42:02;;;;;;;;;;;;;;;23.36;41.93;101431.06;4930833;28;98337;-71
2023/04/17 10:44:32;;;;;;;;;;;;;;;23.49;41.72;101435.53;4929351;28;98238;-71
2023/04/17 10:47:04;;;;;;;;;;;;;;;23.24;42.00;101439.22;4902311;28;127544;-71
2023/04/17 10:49:55;;;;;;;;;;;;;;;22.99;42.80;101438.16;4927490;28;125895;-71
2023/04/17 10:52:33;;;;;;;;;;;;;;;22.71;42.70;101435.75;4925655;28;99734;-71
2023/04/17 10:55:04;;;;;;;;;;;;;;;22.52;43.13;101440.81;4926376;28;99556;-71
2023/04/17 10:57:57;;;;;;;;;;;;;;;22.38;43.13;101440.19;4925621;28;98483;-70
2023/04/17 11:00:36;;;;;;;;;;;;;;;22.27;43.27;101450.66;4997722;27;97891;-72
2023/04/17 11:03:03;;;;;;;;;;;;;;;22.20;43.10;101442.91;4994803;27;98358;-70
2023/04/17 11:05:30;;;;;;;;;;;;;;;22.16;43.20;101443.88;4989144;27;99244;-70
2023/04/17 11:07:56;;;;;;;;;;;;;;;22.06;43.08;101444.97;4991652;27;99003;-70
2023/04/17 11:10:23;;;;;;;;;;;;;;;21.95;43.17;101441.72;4989977;27;105267;-70
2023/04/17 11:12:55;;;;;;;;;;;;;;;21.83;43.41;101444.28;4995090;27;98149;-71
2023/04/17 11:15:28;;;;;;;;;;;;;;;21.73;43.41;101447.31;4992481;27;100810;-70
2023/04/17 11:17:54;;;;;;;;;;;;;;;21.66;43.39;101447.81;4991935;27;99110;-70
2023/04/17 11:20:20;;;;;;;;;;;;;;;21.64;43.33;101462.97;4992376;27;98081;-70
2023/04/17 11:22:46;;;;;;;;;;;;;;;21.60;43.36;101461.97;4992843;27;98750;-70
2023/04/17 11:25:26;;;;;;;;;;;;;;;21.56;43.18;101461.81;4989972;27;130852;-70
2023/04/17 11:27:54;;;;;;;;;;;;;;;21.59;43.30;101460.38;4995664;27;98390;-70
2023/04/17 11:30:31;;;;;;;;;;;;;;;21.69;43.04;101466.38;4988787;27;98296;-70
2023/04/17 11:33:01;;;;;;;;;;;;;;;21.89;42.63;101467.72;4995605;27;98202;-70
2023/04/17 11:35:33;;;;;;;;;;;;;;;22.12;42.68;101471.13;4992346;27;109809;-70
2023/04/17 11:38:13;;;;;;;;;;;;;;;22.34;42.49;101466.66;4994376;27;108291;-70
2023/04/17 11:40:58;;;;;;;;;;;;;;;22.59;42.32;101468.59;4988763;27;98019;-70
2023/04/17 11:43:24;;;;;;;;;;;;;;;22.66;42.19;101474.41;4990834;27;98350;-70
2023/04/17 11:45:55;;;;;;;;;;;;;;;22.62;42.55;101467.13;4995831;27;121347;-70
2023/04/17 11:48:25;;;;;;;;;;;;;;;22.59;42.57;101470.53;4990118;27;98587;-70
2023/04/17 11:50:54;;;;;;;;;;;;;;;22.52;42.52;101471.84;4987286;27;99636;-70
2023/04/17 11:53:21;;;;;;;;;;;;;;;22.43;42.62;101471.03;4994208;27;98437;-70
2023/04/17 11:55:48;;;;;;;;;;;;;;;22.38;42.97;101468.44;4994046;27;99228;-70
2023/04/17 11:58:14;;;;;;;;;;;;;;;22.37;42.68;101474.28;4990273;27;98617;-70
2023/04/17 12:00:41;;;;;;;;;;;;;;;22.35;42.76;101473.78;4992218;27;115932;-70
2023/04/17 12:03:33;;;;;;;;;;;;;;;22.29;43.04;101473.13;4994606;27;98251;-70
2023/04/17 12:06:00;;;;;;;;;;;;;;;22.25;42.88;101469.41;4993498;27;98869;-70
2023/04/17 12:08:26;;;;;;;;;;;;;;;22.17;42.97;101470.22;4991978;27;126691;-70
2023/04/17 12:10:52;;;;;;;;;;;;;;;22.09;43.00;101468.25;4985983;27;98808;-70
2023/04/17 12:13:18;;;;;;;;;;;;;;;21.99;43.15;101472.91;4981885;27;106440;-70
2023/04/17 12:15:44;;;;;;;;;;;;;;;21.87;43.39;101485.63;4978326;27;127483;-70
2023/04/17 12:18:10;;;;;;;;;;;;;;;21.73;43.47;101483.00;4977728;27;98210;-70
2023/04/17 12:20:36;;;;;;;;;;;;;;;21.59;43.54;101483.13;4980867;27;98037;-70
2023/04/17 12:23:03;;;;;;;;;;;;;;;21.44;43.52;101487.09;4961900;27;98086;-70
2023/04/17 12:25:29;;;;;;;;;;;;;;;21.31;43.74;101488.78;4978921;27;98471;-70
2023/04/17 12:27:57;;;;;;;;;;;;;;;21.18;43.68;101488.84;4980453;27;98811;-70
2023/04/17 12:30:26;;;;;;;;;;;;;;;21.06;43.73;101493.00;4978194;27;99514;-70
2023/04/17 12:32:53;;;;;;;;;;;;;;;20.99;43.69;101494.56;4980313;27;98043;-70